createdAt,value
2018-09-03T00:01:11.598Z,5.57
2018-09-03T00:03:39.263Z,7.40
2018-09-03T00:06:07.013Z,6.30
2018-09-03T00:08:34.696Z,5.20
2018-09-03T00:11:02.772Z,6.23
2018-09-03T00:13:30.791Z,6.00
2018-09-03T00:15:58.442Z,5.10
2018-09-03T00:18:26.106Z,5.50
2018-09-03T00:20:53.890Z,5.57
2018-09-03T00:23:21.631Z,4.40
2018-09-03T00:25:49.709Z,5.20
2018-09-03T00:28:17.408Z,5.13
2018-09-03T00:30:45.170Z,5.83
2018-09-03T00:33:18.528Z,5.10
2018-09-03T00:35:52.008Z,5.13
2018-09-03T00:38:25.797Z,6.07
2018-09-03T00:40:59.342Z,7.20
2018-09-03T00:43:32.913Z,7.43
2018-09-03T00:48:41.584Z,6.20
2018-09-03T00:51:09.311Z,6.80
2018-09-03T00:53:37.112Z,5.60
2018-09-03T00:56:04.939Z,7.60
2018-09-03T00:58:32.734Z,7.73
2018-09-03T01:01:00.827Z,7.53
2018-09-03T01:03:28.626Z,7.60
2018-09-03T01:05:56.334Z,8.77
2018-09-03T01:08:24.104Z,8.50
2018-09-03T01:10:51.779Z,7.00
2018-09-03T01:13:19.468Z,5.17
2018-09-03T01:15:47.155Z,6.73
2018-09-03T01:18:14.919Z,6.50
2018-09-03T01:20:42.606Z,7.20
2018-09-03T01:23:10.369Z,6.43
2018-09-03T01:25:38.084Z,7.63
2018-09-03T01:28:05.801Z,6.43
2018-09-03T01:30:33.636Z,5.70
2018-09-03T01:33:01.424Z,6.30
2018-09-03T01:35:29.533Z,6.17
2018-09-03T01:37:57.573Z,8.43
2018-09-03T01:40:25.391Z,8.67
2018-09-03T01:42:53.099Z,6.70
2018-09-03T01:45:20.810Z,8.97
2018-09-03T01:47:48.578Z,7.00
2018-09-03T01:50:16.306Z,8.97
2018-09-03T01:52:44.135Z,6.90
2018-09-03T01:55:11.922Z,8.60
2018-09-03T01:57:39.634Z,7.70
2018-09-03T02:00:07.568Z,10.47
2018-09-03T02:02:35.397Z,8.93
2018-09-03T02:05:03.135Z,6.80
2018-09-03T02:07:31.175Z,6.47
2018-09-03T02:09:58.901Z,7.23
2018-09-03T02:12:26.602Z,8.30
2018-09-03T02:14:54.372Z,10.47
2018-09-03T02:17:22.143Z,10.17
2018-09-03T02:19:49.865Z,8.00
2018-09-03T02:22:17.702Z,8.20
2018-09-03T02:24:45.475Z,10.50
2018-09-03T02:27:13.379Z,7.47
2018-09-03T02:29:41.089Z,8.97
2018-09-03T02:32:08.910Z,10.17
2018-09-03T02:34:37.057Z,11.63
2018-09-03T02:37:05.162Z,8.93
2018-09-03T02:39:39.950Z,10.13
2018-09-03T02:42:08.055Z,11.87
2018-09-03T02:44:35.914Z,10.40
2018-09-03T02:47:04.708Z,9.40
2018-09-03T02:49:32.422Z,10.63
2018-09-03T02:52:00.259Z,10.27
2018-09-03T02:54:27.982Z,12.63
2018-09-03T02:56:55.770Z,10.53
2018-09-03T02:59:23.490Z,13.67
2018-09-03T03:01:51.326Z,11.17
2018-09-03T03:04:34.027Z,12.17
2018-09-03T03:07:01.851Z,10.63
2018-09-03T03:09:29.506Z,11.70
2018-09-03T03:11:57.256Z,11.83
2018-09-03T03:14:25.064Z,13.77
2018-09-03T03:16:52.940Z,15.43
2018-09-03T03:19:20.683Z,13.00
2018-09-03T03:21:48.490Z,12.77
2018-09-03T03:24:16.223Z,11.67
2018-09-03T03:26:43.993Z,13.70
2018-09-03T03:29:11.797Z,12.47
2018-09-03T03:31:39.486Z,13.47
2018-09-03T03:34:07.311Z,11.67
2018-09-03T03:36:35.027Z,13.07
2018-09-03T03:39:03.607Z,12.10
2018-09-03T03:41:31.286Z,12.67
2018-09-03T03:43:58.963Z,10.87
2018-09-03T03:46:26.691Z,10.47
2018-09-03T03:48:54.466Z,11.60
2018-09-03T03:51:22.172Z,9.13
2018-09-03T03:53:49.963Z,11.90
2018-09-03T03:56:17.699Z,9.93
2018-09-03T03:58:45.544Z,8.53
2018-09-03T04:01:13.227Z,8.00
2018-09-03T04:03:41.078Z,6.53
2018-09-03T04:06:08.970Z,8.50
2018-09-03T04:08:36.785Z,8.20
2018-09-03T04:11:04.995Z,7.80
2018-09-03T04:13:32.769Z,7.47
2018-09-03T04:16:07.421Z,7.00
2018-09-03T04:18:35.189Z,5.73
2018-09-03T04:21:02.914Z,6.00
2018-09-03T04:23:30.594Z,4.53
2018-09-03T04:25:58.431Z,4.07
2018-09-03T04:28:26.139Z,6.20
2018-09-03T04:30:53.909Z,6.37
2018-09-03T04:33:48.945Z,6.27
2018-09-03T04:36:18.183Z,6.37
2018-09-03T04:38:45.920Z,7.20
2018-09-03T04:41:20.287Z,6.93
2018-09-03T04:43:47.991Z,6.80
2018-09-03T04:46:15.664Z,6.17
2018-09-03T04:48:44.193Z,6.97
2018-09-03T04:51:11.891Z,7.53
2018-09-03T04:53:39.578Z,8.60
2018-09-03T04:56:07.347Z,8.00
2018-09-03T04:58:35.018Z,6.13
2018-09-03T05:01:02.728Z,7.23
2018-09-03T05:03:30.449Z,7.07
2018-09-03T05:06:01.632Z,6.00
2018-09-03T05:08:29.790Z,6.57
2018-09-03T05:10:57.486Z,7.50
2018-09-03T05:13:25.181Z,6.60
2018-09-03T05:15:52.875Z,6.80
2018-09-03T05:18:20.609Z,6.17
2018-09-03T05:20:48.358Z,8.17
2018-09-03T05:23:16.114Z,7.97
2018-09-03T05:25:43.798Z,6.67
2018-09-03T05:28:11.555Z,6.57
2018-09-03T05:30:39.299Z,5.93
2018-09-03T05:33:07.064Z,6.53
2018-09-03T05:35:34.807Z,6.30
2018-09-03T05:38:02.679Z,6.80
2018-09-03T05:40:30.481Z,7.43
2018-09-03T05:42:58.381Z,8.20
2018-09-03T05:45:26.050Z,10.10
2018-09-03T05:47:53.783Z,9.50
2018-09-03T05:50:21.811Z,9.17
2018-09-03T05:52:49.472Z,9.33
2018-09-03T05:55:17.219Z,10.53
2018-09-03T05:57:44.916Z,10.93
2018-09-03T06:00:12.666Z,9.10
2018-09-03T06:02:40.663Z,10.07
2018-09-03T06:05:08.351Z,10.70
2018-09-03T06:07:40.228Z,9.40
2018-09-03T06:10:08.194Z,11.03
2018-09-03T06:12:42.841Z,10.37
2018-09-03T06:15:10.544Z,10.43
2018-09-03T06:17:38.660Z,9.93
2018-09-03T06:20:06.762Z,8.30
2018-09-03T06:22:34.479Z,9.07
2018-09-03T06:25:02.664Z,8.10
2018-09-03T06:27:30.370Z,9.40
2018-09-03T06:29:58.106Z,9.73
2018-09-03T06:32:25.865Z,9.70
2018-09-03T06:34:53.641Z,8.83
2018-09-03T06:37:21.391Z,10.77
2018-09-03T06:39:49.111Z,9.93
2018-09-03T06:42:16.826Z,8.63
2018-09-03T06:44:45.624Z,8.90
2018-09-03T06:47:13.664Z,10.20
2018-09-03T06:49:41.587Z,8.27
2018-09-03T06:52:09.331Z,9.67
2018-09-03T06:54:37.062Z,9.87
2018-09-03T06:57:05.075Z,9.20
2018-09-03T06:59:32.824Z,8.33
2018-09-03T07:02:00.763Z,9.07
2018-09-03T07:04:28.571Z,8.03
2018-09-03T07:06:56.352Z,9.83
2018-09-03T07:09:24.039Z,8.30
2018-09-03T07:11:51.832Z,8.63
2018-09-03T07:14:19.552Z,8.33
2018-09-03T07:16:47.645Z,7.07
2018-09-03T07:19:15.430Z,5.87
2018-09-03T07:21:43.169Z,6.93
2018-09-03T07:24:10.847Z,6.37
2018-09-03T07:26:38.580Z,7.13
2018-09-03T07:29:06.351Z,6.47
2018-09-03T07:31:34.032Z,8.00
2018-09-03T07:34:05.138Z,5.60
2018-09-03T07:36:32.897Z,5.80
2018-09-03T07:39:00.784Z,5.97
2018-09-03T07:41:28.511Z,5.50
2018-09-03T07:43:56.229Z,5.50
2018-09-03T07:46:23.973Z,7.70
2018-09-03T07:48:51.898Z,6.00
2018-09-03T07:51:19.587Z,5.73
2018-09-03T07:53:47.584Z,8.93
2018-09-03T07:56:15.274Z,4.93
2018-09-03T07:58:43.045Z,5.23
2018-09-03T08:01:11.053Z,4.57
2018-09-03T08:03:38.742Z,6.10
2018-09-03T08:06:06.667Z,6.20
2018-09-03T08:08:34.355Z,5.87
2018-09-03T08:11:02.178Z,5.33
2018-09-03T08:13:38.130Z,6.57
2018-09-03T08:16:06.063Z,5.03
2018-09-03T08:18:33.874Z,6.93
2018-09-03T08:21:01.591Z,5.97
2018-09-03T08:23:29.361Z,6.87
2018-09-03T08:25:57.126Z,6.10
2018-09-03T08:28:24.851Z,5.63
2018-09-03T08:30:52.694Z,5.60
2018-09-03T08:33:20.390Z,5.70
2018-09-03T08:35:48.109Z,6.40
2018-09-03T08:38:15.855Z,6.63
2018-09-03T08:40:43.682Z,7.80
2018-09-03T08:43:11.557Z,5.40
2018-09-03T08:45:42.493Z,4.90
2018-09-03T08:48:10.319Z,4.57
2018-09-03T08:50:38.331Z,5.47
2018-09-03T08:53:06.304Z,6.30
2018-09-03T08:55:34.086Z,5.87
2018-09-03T08:58:02.112Z,4.77
2018-09-03T09:00:29.802Z,4.10
2018-09-03T09:02:57.571Z,4.70
2018-09-03T09:05:25.399Z,5.20
2018-09-03T09:07:53.259Z,4.90
2018-09-03T09:10:21.148Z,5.47
2018-09-03T09:12:48.967Z,3.90
2018-09-03T09:15:16.938Z,4.37
2018-09-03T09:17:44.728Z,4.90
2018-09-03T09:20:12.406Z,4.10
2018-09-03T09:22:40.211Z,3.20
2018-09-03T09:25:08.022Z,3.70
2018-09-03T09:27:35.674Z,4.40
2018-09-03T09:30:04.714Z,4.47
2018-09-03T09:32:32.402Z,3.23
2018-09-03T09:35:00.480Z,3.73
2018-09-03T09:37:28.155Z,3.70
2018-09-03T09:39:55.908Z,3.80
2018-09-03T09:42:23.762Z,3.50
2018-09-03T09:44:51.767Z,3.20
2018-09-03T09:47:19.984Z,3.20
2018-09-03T09:49:47.678Z,3.50
2018-09-03T09:52:15.475Z,3.37
2018-09-03T09:54:43.333Z,3.47
2018-09-03T09:57:11.039Z,2.60
2018-09-03T09:59:39.342Z,3.60
2018-09-03T10:02:07.221Z,3.07
2018-09-03T10:04:34.904Z,3.20
2018-09-03T10:07:02.707Z,2.50
2018-09-03T10:09:30.415Z,3.20
2018-09-03T10:12:01.665Z,3.17
2018-09-03T10:14:29.507Z,3.00
2018-09-03T10:16:57.229Z,3.00
2018-09-03T10:19:25.007Z,2.30
2018-09-03T10:21:52.747Z,3.03
2018-09-03T10:24:20.422Z,2.67
2018-09-03T10:26:48.193Z,2.87
2018-09-03T10:29:15.870Z,2.60
2018-09-03T10:31:43.651Z,2.80
2018-09-03T10:34:11.346Z,2.50
2018-09-03T10:36:39.223Z,2.60
2018-09-03T10:39:07.459Z,3.20
2018-09-03T10:41:35.492Z,2.60
2018-09-03T10:44:03.291Z,2.70
2018-09-03T10:46:31.059Z,2.67
2018-09-03T10:48:58.767Z,2.50
2018-09-03T10:51:26.527Z,3.27
2018-09-03T10:53:54.342Z,2.30
2018-09-03T10:56:22.191Z,2.60
2018-09-03T10:58:49.955Z,3.00
2018-09-03T11:03:57.600Z,2.07
2018-09-03T11:06:25.276Z,2.40
2018-09-03T11:08:53.135Z,2.60
2018-09-03T11:11:21.055Z,2.30
2018-09-03T11:13:48.883Z,2.20
2018-09-03T11:16:16.689Z,2.17
2018-09-03T11:18:44.438Z,2.10
2018-09-03T11:21:13.113Z,2.47
2018-09-03T11:23:40.706Z,1.87
2018-09-03T11:26:08.435Z,2.10
2018-09-03T11:28:36.181Z,2.03
2018-09-03T11:31:07.659Z,2.30
2018-09-03T11:33:35.343Z,2.37
2018-09-03T11:36:09.237Z,2.13
2018-09-03T11:38:37.055Z,2.20
2018-09-03T11:41:04.739Z,2.00
2018-09-03T11:43:32.409Z,1.97
2018-09-03T11:46:00.423Z,1.80
2018-09-03T11:48:28.125Z,1.53
2018-09-03T11:50:55.910Z,1.60
2018-09-03T11:53:23.597Z,2.10
2018-09-03T11:55:51.354Z,2.10
2018-09-03T11:58:19.098Z,2.13
2018-09-03T12:00:46.940Z,2.50
2018-09-03T12:03:21.151Z,2.20
2018-09-03T12:05:48.898Z,1.77
2018-09-03T12:08:16.591Z,1.90
2018-09-03T12:10:44.612Z,1.83
2018-09-03T12:13:12.302Z,1.90
2018-09-03T12:15:43.190Z,1.80
2018-09-03T12:18:11.272Z,1.50
2018-09-03T12:20:38.932Z,2.13
2018-09-03T12:23:06.619Z,1.70
2018-09-03T12:25:34.294Z,1.80
2018-09-03T12:28:02.293Z,2.10
2018-09-03T12:30:30.000Z,1.73
2018-09-03T12:32:58.502Z,1.80
2018-09-03T12:35:26.219Z,1.47
2018-09-03T12:37:54.087Z,1.80
2018-09-03T12:40:21.802Z,1.60
2018-09-03T12:42:49.589Z,1.70
2018-09-03T12:45:21.300Z,1.50
2018-09-03T12:47:49.112Z,1.73
2018-09-03T12:50:16.863Z,1.80
2018-09-03T12:52:44.783Z,1.73
2018-09-03T12:55:12.598Z,2.37
2018-09-03T12:57:40.263Z,2.20
2018-09-03T13:00:09.739Z,1.50
2018-09-03T13:02:39.413Z,1.53
2018-09-03T13:05:05.235Z,1.43
2018-09-03T13:07:32.975Z,1.83
2018-09-03T13:10:00.703Z,1.80
2018-09-03T13:12:28.452Z,1.90
2018-09-03T13:14:56.135Z,1.57
2018-09-03T13:17:23.797Z,1.80
2018-09-03T13:19:51.499Z,1.60
2018-09-03T13:22:19.362Z,1.50
2018-09-03T13:24:47.220Z,2.07
2018-09-03T13:27:17.139Z,1.60
2018-09-03T13:29:44.955Z,1.90
2018-09-03T13:32:12.662Z,2.00
2018-09-03T13:34:44.726Z,2.10
2018-09-03T13:37:12.423Z,2.13
2018-09-03T13:39:40.211Z,1.83
2018-09-03T13:42:07.981Z,2.10
2018-09-03T13:44:35.670Z,1.90
2018-09-03T13:47:03.400Z,1.90
2018-09-03T13:49:31.152Z,1.90
2018-09-03T13:51:58.980Z,1.90
2018-09-03T13:54:26.683Z,1.70
2018-09-03T13:56:54.503Z,1.47
2018-09-03T13:59:22.488Z,2.10
2018-09-03T14:01:50.827Z,1.80
2018-09-03T14:04:18.746Z,1.37
2018-09-03T14:06:46.502Z,1.60
2018-09-03T14:09:14.207Z,1.87
2018-09-03T14:11:42.062Z,1.83
2018-09-03T14:14:10.127Z,2.00
2018-09-03T14:16:37.875Z,2.13
2018-09-03T14:19:05.868Z,1.80
2018-09-03T14:21:33.581Z,2.10
2018-09-03T14:24:01.387Z,2.63
2018-09-03T14:26:29.138Z,2.17
2018-09-03T14:28:56.806Z,1.60
2018-09-03T14:31:24.575Z,1.97
2018-09-03T14:33:52.512Z,2.80
2018-09-03T14:36:20.316Z,2.60
2018-09-03T14:38:48.027Z,1.83
2018-09-03T14:41:15.770Z,1.90
2018-09-03T14:43:44.378Z,2.17
2018-09-03T14:46:12.291Z,2.30
2018-09-03T14:48:40.263Z,2.83
2018-09-03T14:51:12.006Z,2.70
2018-09-03T14:53:45.415Z,2.70
2018-09-03T14:56:13.207Z,2.30
2018-09-03T14:58:41.063Z,2.60
2018-09-03T15:01:08.939Z,2.40
2018-09-03T15:03:37.245Z,2.40
2018-09-03T15:06:05.394Z,2.90
2018-09-03T15:08:33.277Z,2.43
2018-09-03T15:11:01.217Z,2.10
2018-09-03T15:13:28.884Z,2.07
2018-09-03T15:15:56.932Z,2.30
2018-09-03T15:18:24.651Z,2.07
2018-09-03T15:20:52.359Z,1.83
2018-09-03T15:23:20.195Z,1.87
2018-09-03T15:25:47.929Z,2.00
2018-09-03T15:28:15.719Z,1.77
2018-09-03T15:30:43.395Z,2.10
2018-09-03T15:33:11.071Z,1.90
2018-09-03T15:35:39.075Z,2.60
2018-09-03T15:38:06.982Z,2.00
2018-09-03T15:40:34.646Z,2.30
2018-09-03T15:43:02.705Z,2.10
2018-09-03T15:45:30.388Z,2.30
2018-09-03T15:47:58.242Z,2.33
2018-09-03T15:50:26.043Z,2.30
2018-09-03T15:52:54.019Z,2.33
2018-09-03T15:55:21.829Z,2.30
2018-09-03T15:57:50.245Z,2.43
2018-09-03T16:00:17.976Z,1.90
2018-09-03T16:02:45.768Z,2.27
2018-09-03T16:05:13.454Z,2.40
2018-09-03T16:07:41.182Z,2.83
2018-09-03T16:10:08.998Z,2.30
2018-09-03T16:12:36.843Z,2.70
2018-09-03T16:15:05.040Z,2.47
2018-09-03T16:17:32.759Z,2.80
2018-09-03T16:20:00.665Z,2.63
2018-09-03T16:22:28.411Z,2.60
2018-09-03T16:24:56.257Z,2.73
2018-09-03T16:27:24.292Z,2.60
2018-09-03T16:29:51.972Z,2.93
2018-09-03T16:32:19.687Z,2.73
2018-09-03T16:34:47.391Z,2.60
2018-09-03T16:37:15.088Z,2.67
2018-09-03T16:39:42.784Z,2.80
2018-09-03T16:42:10.486Z,2.50
2018-09-03T16:44:38.235Z,2.30
2018-09-03T16:47:06.576Z,2.50
2018-09-03T16:49:34.266Z,2.70
2018-09-03T16:52:02.130Z,2.30
2018-09-03T16:54:33.636Z,2.60
2018-09-03T16:57:01.414Z,2.53
2018-09-03T16:59:29.212Z,2.23
2018-09-03T17:01:57.507Z,2.70
2018-09-03T17:04:25.574Z,2.73
2018-09-03T17:06:53.382Z,2.47
2018-09-03T17:09:21.415Z,2.70
2018-09-03T17:11:49.130Z,2.43
2018-09-03T17:14:16.946Z,2.63
2018-09-03T17:16:44.627Z,2.83
2018-09-03T17:19:12.624Z,2.83
2018-09-03T17:21:40.370Z,2.47
2018-09-03T17:24:08.398Z,2.87
2018-09-03T17:26:36.227Z,2.40
2018-09-03T17:29:04.133Z,2.40
2018-09-03T17:31:32.219Z,2.50
2018-09-03T17:33:59.891Z,2.63
2018-09-03T17:36:27.728Z,2.30
2018-09-03T17:38:55.538Z,2.87
2018-09-03T17:41:23.351Z,2.30
2018-09-03T17:43:51.153Z,2.67
2018-09-03T17:46:18.987Z,2.43
2018-09-03T17:48:46.775Z,2.93
2018-09-03T17:51:14.540Z,2.80
2018-09-03T17:53:51.822Z,2.77
2018-09-03T17:56:23.641Z,2.90
2018-09-03T17:58:52.149Z,2.70
2018-09-03T18:01:20.251Z,2.87
2018-09-03T18:03:48.032Z,2.50
2018-09-03T18:06:15.917Z,2.50
2018-09-03T18:08:43.715Z,2.77
2018-09-03T18:11:11.798Z,2.27
2018-09-03T18:13:39.528Z,2.73
2018-09-03T18:16:07.202Z,3.13
2018-09-03T18:18:34.918Z,2.63
2018-09-03T18:21:02.766Z,3.20
2018-09-03T18:23:30.821Z,2.87
2018-09-03T18:25:58.519Z,2.70
2018-09-03T18:28:26.206Z,2.90
2018-09-03T18:30:53.986Z,3.10
2018-09-03T18:33:21.714Z,2.90
2018-09-03T18:35:49.560Z,2.83
2018-09-03T18:38:17.532Z,2.70
2018-09-03T18:40:45.229Z,3.13
2018-09-03T18:43:13.204Z,3.20
2018-09-03T18:45:40.925Z,3.10
2018-09-03T18:48:08.680Z,2.93
2018-09-03T18:50:36.562Z,2.90
2018-09-03T18:53:04.371Z,3.00
2018-09-03T18:55:32.614Z,2.93
2018-09-03T18:58:00.350Z,3.03
2018-09-03T19:00:28.225Z,2.67
2018-09-03T19:02:55.883Z,3.47
2018-09-03T19:05:23.582Z,3.40
2018-09-03T19:07:51.438Z,3.47
2018-09-03T19:10:19.226Z,3.03
2018-09-03T19:12:46.914Z,3.93
2018-09-03T19:15:15.702Z,3.37
2018-09-03T19:17:43.431Z,3.13
2018-09-03T19:20:11.275Z,3.37
2018-09-03T19:22:39.017Z,3.00
2018-09-03T19:25:06.775Z,3.00
2018-09-03T19:27:34.498Z,3.00
2018-09-03T19:30:02.411Z,2.87
2018-09-03T19:32:30.183Z,3.30
2018-09-03T19:34:57.937Z,3.03
2018-09-03T19:37:25.679Z,2.97
2018-09-03T19:39:57.161Z,3.50
2018-09-03T19:42:24.932Z,2.97
2018-09-03T19:44:52.902Z,2.80
2018-09-03T19:47:20.626Z,2.90
2018-09-03T19:49:48.415Z,2.80
2018-09-03T19:52:16.199Z,2.60
2018-09-03T19:54:45.111Z,2.80
2018-09-03T19:57:12.814Z,3.23
2018-09-03T19:59:40.570Z,3.20
2018-09-03T20:02:08.877Z,3.27
2018-09-03T20:04:37.670Z,3.10
2018-09-03T20:07:05.462Z,2.97
2018-09-03T20:09:33.156Z,3.17
2018-09-03T20:12:00.976Z,3.10
2018-09-03T20:14:29.067Z,3.20
2018-09-03T20:16:57.732Z,3.00
2018-09-03T20:19:25.410Z,3.13
2018-09-03T20:21:53.138Z,3.20
2018-09-03T20:24:21.115Z,3.00
2018-09-03T20:26:48.851Z,3.17
2018-09-03T20:29:16.566Z,3.23
2018-09-03T20:31:44.571Z,3.27
2018-09-03T20:34:12.268Z,3.07
2018-09-03T20:36:39.950Z,3.10
2018-09-03T20:39:07.702Z,3.10
2018-09-03T20:41:35.665Z,3.47
2018-09-03T20:44:03.522Z,3.60
2018-09-03T20:46:31.686Z,2.97
2018-09-03T20:49:00.062Z,3.00
2018-09-03T20:51:27.845Z,3.40
2018-09-03T20:53:55.611Z,3.13
2018-09-03T20:56:23.363Z,3.40
2018-09-03T20:58:51.293Z,3.13
2018-09-03T21:01:19.328Z,3.10
2018-09-03T21:03:47.096Z,3.60
2018-09-03T21:06:18.303Z,3.03
2018-09-03T21:08:46.034Z,2.90
2018-09-03T21:11:13.774Z,3.30
2018-09-03T21:13:41.469Z,3.83
2018-09-03T21:16:09.150Z,3.40
2018-09-03T21:18:36.868Z,3.30
2018-09-03T21:21:04.926Z,3.80
2018-09-03T21:23:32.621Z,3.40
2018-09-03T21:26:00.420Z,3.63
2018-09-03T21:28:28.149Z,4.00
2018-09-03T21:30:57.038Z,3.80
2018-09-03T21:33:24.715Z,3.70
2018-09-03T21:35:52.477Z,3.97
2018-09-03T21:38:20.528Z,3.60
2018-09-03T21:40:48.263Z,3.43
2018-09-03T21:43:16.023Z,3.80
2018-09-03T21:45:44.088Z,4.47
2018-09-03T21:48:11.771Z,4.40
2018-09-03T21:50:39.541Z,4.60
2018-09-03T21:53:07.262Z,4.83
2018-09-03T21:55:35.030Z,4.27
2018-09-03T21:58:02.774Z,4.60
2018-09-03T22:00:30.531Z,4.70
2018-09-03T22:02:58.287Z,4.90
2018-09-03T22:05:26.101Z,3.97
2018-09-03T22:07:53.880Z,4.53
2018-09-03T22:10:21.810Z,4.30
2018-09-03T22:12:49.525Z,4.33
2018-09-03T22:15:17.407Z,4.30
2018-09-03T22:17:45.383Z,3.90
2018-09-03T22:20:13.119Z,4.33
2018-09-03T22:22:40.844Z,4.10
2018-09-03T22:25:08.579Z,5.17
2018-09-03T22:27:36.272Z,4.70
2018-09-03T22:30:04.676Z,4.87
2018-09-03T22:32:32.360Z,4.47
2018-09-03T22:35:00.291Z,4.83
2018-09-03T22:37:28.038Z,5.13
2018-09-03T22:39:55.707Z,4.40
2018-09-03T22:42:25.994Z,4.23
2018-09-03T22:44:55.228Z,4.60
2018-09-03T22:47:22.987Z,4.37
2018-09-03T22:49:50.678Z,4.90
2018-09-03T22:52:18.382Z,4.10
2018-09-03T22:54:49.742Z,4.50
2018-09-03T22:57:17.602Z,4.50
2018-09-03T22:59:45.276Z,4.67
2018-09-03T23:02:13.182Z,4.40
2018-09-03T23:04:40.887Z,4.60
2018-09-03T23:07:08.583Z,4.07
2018-09-03T23:09:36.326Z,3.93
2018-09-03T23:12:04.059Z,4.37
2018-09-03T23:14:31.774Z,4.83
2018-09-03T23:16:59.617Z,4.00
2018-09-03T23:19:27.414Z,4.33
2018-09-03T23:21:55.127Z,3.90
2018-09-03T23:24:22.894Z,4.43
2018-09-03T23:26:50.599Z,4.20
2018-09-03T23:29:18.640Z,4.33
2018-09-03T23:31:46.313Z,4.33
2018-09-03T23:34:14.065Z,4.40
2018-09-03T23:36:41.797Z,4.40
2018-09-03T23:39:09.502Z,4.93
2018-09-03T23:41:37.175Z,4.27
2018-09-03T23:44:11.757Z,4.60
2018-09-03T23:46:39.623Z,4.30
2018-09-03T23:49:07.353Z,4.23
2018-09-03T23:51:35.043Z,4.67
2018-09-03T23:54:02.846Z,4.50
2018-09-03T23:56:30.510Z,4.53
2018-09-03T23:58:58.200Z,4.50
